Aérodrome :
LOGIN :

S'inscrire | Disclaimer

   EN    FR    IT 

 










Légende :    VFR   VFR Marginal   IFR   IFR Intensif   IFR Très Intensif
Visi : 
Plafond : 
>= 8 km
>= 3000ft
5 à 8 km
1000 à 3000 ft
1500m à 5 km
500 à 1000 ft
800 à 1500m
200 à 500 ft
< 800m
< 200 ft
Symboles :   Orages  Brouillard  Fortes neiges  Fortes précipitations  Vent > 20 kt
SIGMETs :   Divers  Orages  Givrage  Turbulence  Onde Orograph.  Cendres Volcan.






- Altitude de l'aérodrome : 1306 ft
- Code IATA : ACH


LSZR - Alten Rhein

DERNIER METAR :
  • 281250Z 28005KT 250V310 9999 SCT095 20/07 Q1026 NOSIG RMK G

METARs EXPIRÉS :
  • 281220Z 33004KT 280V010 9999 FEW060 20/05 Q1027 NOSIG RMK F
  • 281150Z 33004KT 280V010 9999 FEW060 19/07 Q1027 NOSIG RMK F
  • 281120Z 28004KT 230V330 CAVOK 19/09 Q1027 NOSIG RMK E
  • 281050Z 28004KT 230V330 CAVOK 19/09 Q1027 NOSIG RMK E
  • 281020Z 28004KT 230V350 CAVOK 19/11 Q1028 NOSIG RMK D

TAF TAF LSZR
Valide du 28 à 12h jusqu'au 28 à 21h UTC


281125Z 2812/2821 28004KT CAVOK
BECMG 2812/2814 9999 FEW060
PROB40
TEMPO 2813/2819 SHRA SCT060TCU
ATIS : +41 71 858 51 66



MET'MAP, la Météo Aéronautique d'un coup d'oeil ! - Copyright ORBIFLY Décembre 2007 - Disclaimer

ORBIFLY MET'MAP TEAM :

Programmation & Développement : Alexandra Zaïnal
Sur une idée originale de : Baudouin d'Aumeries
Assistance à la programmation : Marc-Olivier Méhu
Soutien technique & logistique : Manuel Goepfert

Contact : metmap@orbifly.com




SOURCES & CREDITS :

   NOAA